Terminal Aerodrome Forecast
Issued by NWS

Home | Current Version | Previous Version | Text Only | Print | Product List | Glossary On
Versions: 1 2 3 4 5 6 7 8 9 10 11 12 13
000
FTUS41 KCAR 021148
TAFPQI
TAF
KPQI 021148Z 0212/0312 VRB03KT 2SM -SN OVC025
     FM021500 29008KT P6SM OVC020
     FM021830 30010G22KT P6SM OVC035
     FM022300 30015G30KT 1SM -SHSN BKN035
     FM030130 30015G30KT P6SM SCT100
      AMD LTD TO CLD VIS AND WIND=

USA.gov is the U.S. government's official web portal to all federal, state and local government web resources and services.